• Join FlightAware (Why Join?)
  • Login
  • US Flag 
01:01PM EST


 

Airport Tracker/Info


-or-


 

Live Flight TrackerFlight Track Log ✈ N450S ✈ 14-Apr-2013 ✈ KAPF - KSKY

Flight Track Log - Related Links

Times and Time Zones

All times are in EDT time to prevent confusion due to time zone crossing. See the N450S flight status page for this flight to view local times or setup timezone preferences in your user account.

Time Position Orientation Groundspeed Altitude Reporting Facility
EDT Latitude Longitude Course Direction KTS MPH feet Rate Location/Type
04:51PM 26.1992 -81.8692 343° North 207 238 25,000  Level Miami Center
04:52PM 26.2467 -81.8850 343° North 190 219 6,200 -8,580 Descending Miami Center
04:53PM 26.2828 -81.9236 316° Northwest 179 206 7,900 1,800 Climbing Miami Center
04:54PM 26.3236 -81.9556 317° Northwest 179 206 9,800 1,620 Climbing Miami Center
04:55PM 26.3706 -81.9853 330° Northwest 179 206 11,200 1,560 Climbing Miami Center
04:56PM 26.4250 -81.9808 North 182 209 13,000 1,500 Climbing Miami Center
04:58PM 26.5251 -81.9500 North  Level FlightAware Approximate
04:58PM 26.5361 -81.9669 North 187 215 15,800  Level Miami Center
04:59PM 26.5925 -81.9625 North 198 228 17,300 1,380 Climbing Miami Center
05:00PM 26.6492 -81.9581 North 198 228 18,600 1,320 Climbing Miami Center
05:01PM 26.7036 -81.9486 North 198 228 20,000 1,200 Climbing Miami Center
05:02PM 26.7603 -81.9442 North 198 228 21,100 1,080 Climbing Miami Center
05:03PM 26.8169 -81.9372 North 198 228 22,200 1,020 Climbing Miami Center
05:04PM 26.8714 -81.9328 North 198 228 23,200 780 Climbing Miami Center
05:05PM 26.9278 -81.9306 North 198 228 23,800 660 Climbing Miami Center
05:06PM 26.9864 -81.9239 North 198 228 24,600 600 Climbing Miami Center
05:07PM 27.0472 -81.9125 North 198 228 25,000 180 Climbing Miami Center
05:08PM 27.1100 -81.9058 North 229 264 25,000  Level Miami Center
05:09PM 27.1792 -81.8994 North 247 284 25,000  Level Miami Center
05:10PM 27.2589 -81.8914 North 261 300 25,000  Level Miami Center
05:11PM 27.3292 -81.9061 349° North 255 293 25,000  Level Miami Center
05:12PM 27.4000 -81.9161 353° North 250 288 25,000 300 Level Miami Center
05:13PM 27.4600 -81.9258 352° North 250 288 25,700 480 Climbing Miami Center
05:14PM 27.5244 -81.9381 350° North 238 274 26,000 120 Climbing Miami Center
05:15PM 27.5969 -81.9483 353° North 238 274 26,000  Level Miami Center
05:17PM 27.7419 -81.9711 352° North 252 290 26,000  Level Jacksonville Center
05:18PM 27.8128 -81.9847 350° North 262 302 26,000  Level Jacksonville Center
05:19PM 27.8819 -81.9981 350° North 257 296 26,000  Level Jacksonville Center
05:20PM 27.9508 -82.0092 352° North 257 296 26,000  Level Jacksonville Center
05:21PM 28.0136 -82.0392 337° Northwest 249 287 26,000  Level Jacksonville Center
05:22PM 28.0639 -82.0858 321° Northwest 236 272 26,000  Level Jacksonville Center
05:23PM 28.1164 -82.1325 322° Northwest 236 272 26,000  Level Jacksonville Center
05:24PM 28.1689 -82.1792 322° Northwest 241 277 26,000  Level Jacksonville Center
05:25PM 28.2108 -82.2356 310° West 236 272 26,000  Level Jacksonville Center
05:26PM 28.2550 -82.2942 311° West 236 272 26,000  Level Jacksonville Center
05:27PM 28.2928 -82.3528 306° West 236 272 26,000  Level Jacksonville Center
05:28PM 28.3328 -82.4139 307° West 241 277 26,000  Level Jacksonville Center
05:29PM 28.3747 -82.4750 308° West 241 277 26,000  Level Jacksonville Center
05:30PM 28.4164 -82.5339 309° West 241 277 26,000  Level Jacksonville Center
05:31PM 28.4564 -82.5950 307° West 241 277 26,000  Level Jacksonville Center
05:32PM 28.4961 -82.6564 306° West 241 277 26,000  Level Jacksonville Center
05:33PM 28.5358 -82.7153 308° West 241 277 26,000  Level Jacksonville Center
05:34PM 28.5756 -82.7767 306° West 241 277 26,000  Level Jacksonville Center
05:35PM 28.6175 -82.8381 308° West 241 277 26,000  Level Jacksonville Center
05:36PM 28.6569 -82.8972 307° West 241 277 26,000  Level Jacksonville Center
05:37PM 28.6967 -82.9542 309° West 241 277 26,000  Level Jacksonville Center
05:38PM 28.7342 -83.0158 305° West 241 277 26,000  Level Jacksonville Center
05:39PM 28.7739 -83.0772 306° West 241 277 26,000  Level Jacksonville Center
05:40PM 28.8156 -83.1367 309° West 241 277 26,000  Level Jacksonville Center
05:41PM 28.8550 -83.1961 307° West 241 277 26,000  Level Jacksonville Center
05:42PM 28.8986 -83.2578 309° West 241 277 26,000  Level Jacksonville Center
05:43PM 28.9422 -83.3150 311° West 241 277 26,000  Level Jacksonville Center
05:44PM 29.0153 -83.3247 353° North 234 269 26,000  Level Jacksonville Center
05:45PM 29.0906 -83.2894 22° Northeast 240 276 26,000  Level Jacksonville Center
05:46PM 29.1658 -83.2492 25° Northeast 259 298 26,000  Level Jacksonville Center
05:47PM 29.2411 -83.2114 24° Northeast 277 319 26,000  Level Jacksonville Center
05:48PM 29.3164 -83.1711 25° Northeast 282 325 26,000  Level Jacksonville Center
05:49PM 29.3917 -83.1333 24° Northeast 292 336 26,000  Level Jacksonville Center
05:50PM 29.4689 -83.0931 24° Northeast 297 342 26,000  Level Jacksonville Center
05:51PM 29.5442 -83.0550 24° Northeast 297 342 26,000  Level Jacksonville Center
05:52PM 29.6256 -83.0144 23° Northeast 297 342 26,000  Level Jacksonville Center
05:53PM 29.6881 -82.9833 23° Northeast 297 342 26,000  Level Jacksonville Center
05:54PM 29.7697 -82.9283 30° Northeast 297 342 26,000  Level Jacksonville Center
05:55PM 29.8447 -82.8806 29° Northeast 303 349 26,000 240 Level Jacksonville Center
05:56PM 29.9200 -82.8447 22° Northeast 303 349 26,500 480 Climbing Jacksonville Center
05:57PM 29.9908 -82.8111 22° Northeast 285 328 27,000 240 Climbing Jacksonville Center
05:58PM 30.0639 -82.7725 25° Northeast 285 328 27,000  Level Jacksonville Center
05:59PM 30.1411 -82.7342 23° Northeast 285 328 27,000  Level Jacksonville Center
06:00PM 30.2183 -82.6956 23° Northeast 297 342 27,000  Level Jacksonville Center
06:01PM 30.2997 -82.6544 24° Northeast 297 342 27,000  Level Jacksonville Center
06:02PM 30.3789 -82.6181 22° Northeast 303 349 27,000  Level Jacksonville Center
06:03PM 30.4583 -82.5792 23° Northeast 303 349 27,000  Level Jacksonville Center
06:04PM 30.5333 -82.5453 21° North 298 343 27,000  Level Jacksonville Center
06:05PM 30.6083 -82.5111 21° North 292 336 27,000  Level Jacksonville Center
06:06PM 30.6875 -82.4794 19° North 292 336 27,000  Level Jacksonville Center
06:07PM 30.7606 -82.4381 26° Northeast 287 330 27,000  Level Jacksonville Center
06:08PM 30.8333 -82.3917 29° Northeast 292 336 27,000  Level Jacksonville Center
06:09PM 30.9083 -82.3478 27° Northeast 292 336 27,000  Level Jacksonville Center
06:10PM 30.9750 -82.2989 32° Northeast 292 336 27,000  Level Jacksonville Center
06:11PM 31.0417 -82.2403 37° Northeast 292 336 27,000  Level Jacksonville Center
06:12PM 31.1103 -82.1817 36° Northeast 298 343 27,000  Level Jacksonville Center
06:13PM 31.1683 -82.1108 46° Northeast 298 343 27,000  Level Jacksonville Center
06:14PM 31.2283 -82.0372 46° Northeast 298 343 27,000  Level Jacksonville Center
06:15PM 31.3033 -82.0075 19° North 298 343 27,000  Level Jacksonville Center
06:16PM 31.3908 -82.0117 358° North 272 313 27,000  Level Jacksonville Center
06:17PM 31.4661 -82.0133 359° North 289 333 27,000  Level Jacksonville Center
06:18PM 31.5475 -82.0197 356° North 289 333 27,000  Level Jacksonville Center
06:19PM 31.6353 -82.0239 358° North 289 333 27,000  Level Jacksonville Center
06:20PM 31.7083 -82.0281 357° North 294 338 27,000  Level Jacksonville Center
06:21PM 31.7983 -82.0322 358° North 294 338 27,000  Level Jacksonville Center
06:22PM 31.8817 -82.0364 358° North 289 333 27,000  Level Jacksonville Center
06:24PM 32.0017 -82.0453 356° North 303 349 27,000  Level Atlanta Center
06:25PM 32.0833 -82.0508 357° North 298 343 27,000  Level Atlanta Center
06:26PM 32.1647 -82.0564 357° North 298 343 27,000  Level Atlanta Center
06:27PM 32.2503 -82.0569 360° North 291 335 27,000  Level Atlanta Center
06:28PM 32.3339 -82.0625 357° North 296 341 27,000  Level Atlanta Center
06:29PM 32.4133 -82.0656 358° North 296 341 27,000  Level Atlanta Center
06:30PM 32.4989 -82.0711 357° North 291 335 27,000  Level Atlanta Center
06:31PM 32.5806 -82.0767 357° North 297 342 27,000  Level Atlanta Center
06:32PM 32.6642 -82.0822 357° North 297 342 27,000  Level Atlanta Center
06:33PM 32.7475 -82.0878 357° North 291 335 27,000  Level Atlanta Center
06:34PM 32.8311 -82.0933 357° North 291 335 27,000 -60 Level Atlanta Center
06:35PM 32.9147 -82.0939 360° North 291 335 26,900 -300 Descending Atlanta Center
06:36PM 33.0108 -82.1017 356° North 299 344 26,400 -420 Descending Atlanta Center
06:37PM 33.0986 -82.1097 356° North 310 357 26,100 -240 Descending Atlanta Center
06:38PM 33.1842 -82.1128 358° North 310 357 26,000 -60 Descending Atlanta Center
06:39PM 33.2700 -82.1183 357° North 310 357 26,000  Level Atlanta Center
06:40PM 33.3556 -82.1214 358° North 310 357 26,000  Level Atlanta Center
06:41PM 33.4414 -82.1294 356° North 310 357 26,000  Level Atlanta Center
06:42PM 33.5247 -82.1325 358° North 310 357 26,000  Level Atlanta Center
06:43PM 33.6083 -82.1356 358° North 310 357 26,000  Level Atlanta Center
06:44PM 33.6939 -82.1414 357° North 310 357 26,000  Level Atlanta Center
06:45PM 33.7775 -82.1469 357° North 310 357 26,000  Level Atlanta Center
06:46PM 33.8611 -82.1500 358° North 310 357 26,000  Level Atlanta Center
06:47PM 33.9364 -82.1558 356° North 310 357 26,000  Level Atlanta Center
06:48PM 34.0200 -82.1642 355° North 305 351 26,000  Level Atlanta Center
06:49PM 34.1014 -82.1672 358° North 305 351 26,000  Level Atlanta Center
06:50PM 34.1850 -82.1706 358° North 299 344 26,000  Level Atlanta Center
06:51PM 34.2686 -82.1761 357° North 294 338 26,000  Level Atlanta Center
06:52PM 34.3500 -82.1844 355° North 294 338 26,000  Level Atlanta Center
06:53PM 34.4314 -82.1853 360° North 292 336 26,000  Level Atlanta Center
06:54PM 34.5131 -82.1933 355° North 292 336 26,000  Level Atlanta Center
06:55PM 34.5944 -82.1967 358° North 292 336 26,000  Level Atlanta Center
06:56PM 34.6758 -82.2000 358° North 292 336 26,000  Level Atlanta Center
06:57PM 34.7594 -82.2083 355° North 292 336 26,000  Level Atlanta Center
06:58PM 34.8408 -82.2117 358° North 292 336 26,000  Level Atlanta Center
06:59PM 34.9350 -82.2197 356° North 298 343 26,000  Level Atlanta Center
07:00PM 35.0206 -82.2253 357° North 303 349 26,000  Level Atlanta Center
07:01PM 35.0936 -82.2289 358° North 303 349 26,000  Level Atlanta Center
07:02PM 35.1750 -82.2347 357° North 298 343 26,000  Level Atlanta Center
07:03PM 35.2606 -82.2406 357° North 298 343 26,000  Level Atlanta Center
07:04PM 35.3442 -82.2436 358° North 298 343 26,000  Level Atlanta Center
07:05PM 35.4278 -82.2494 357° North 298 343 26,000  Level Atlanta Center
07:06PM 35.5197 -82.2578 356° North 298 343 26,000  Level Atlanta Center
07:07PM 35.6031 -82.2611 358° North 298 343 26,000  Level Atlanta Center
07:08PM 35.6886 -82.2642 358° North 298 343 26,000  Level Atlanta Center
07:09PM 35.7703 -82.2703 357° North 292 336 26,000  Level Atlanta Center
07:10PM 35.8517 -82.2761 357° North 292 336 26,000  Level Atlanta Center
07:11PM 35.9350 -82.2794 358° North 292 336 26,000  Level Atlanta Center
07:12PM 36.0186 -82.2853 357° North 292 336 26,000  Level Atlanta Center
07:13PM 36.1022 -82.2911 357° North 292 336 26,000  Level Atlanta Center
07:14PM 36.1856 -82.2944 358° North 297 342 26,000  Level Atlanta Center
07:16PM 36.3894 -82.3083 357° North 298 343 26,000  Level Indianapolis Center
07:17PM 36.4717 -82.3136 357° North 296 341 26,000  Level Indianapolis Center
07:18PM 36.5556 -82.3189 357° North 299 344 26,000  Level Indianapolis Center
07:19PM 36.6514 -82.3258 357° North 296 341 26,000  Level Indianapolis Center
07:20PM 36.7347 -82.3306 357° North 299 344 26,000  Level Indianapolis Center
07:21PM 36.8192 -82.3353 357° North 304 350 26,000  Level Indianapolis Center
07:22PM 36.9019 -82.3408 357° North 300 345 26,000  Level Indianapolis Center
07:23PM 36.9844 -82.3461 357° North 299 344 26,000  Level Indianapolis Center
07:25PM 37.0667 -82.3511 357° North 298 343 26,000  Level Indianapolis Center
07:26PM 37.1631 -82.3581 357° North 300 345 26,000  Level Indianapolis Center
07:27PM 37.2456 -82.3631 357° North 296 341 26,000  Level Indianapolis Center
07:28PM 37.3283 -82.3681 357° North 295 339 26,000  Level Indianapolis Center
07:29PM 37.4119 -82.3742 357° North 295 339 26,000  Level Indianapolis Center
07:30PM 37.4944 -82.3792 357° North 295 339 26,000  Level Indianapolis Center
07:31PM 37.5931 -82.3861 357° North 300 345 26,000  Level Indianapolis Center
07:32PM 37.6769 -82.3919 357° North 300 345 26,000  Level Indianapolis Center
07:33PM 37.7603 -82.3958 358° North 300 345 26,000  Level Indianapolis Center
07:34PM 37.8444 -82.4008 357° North 301 346 26,000  Level Indianapolis Center
07:35PM 37.9300 -82.4064 357° North 306 352 26,000  Level Indianapolis Center
07:36PM 38.0144 -82.4117 357° North 303 349 26,000  Level Indianapolis Center
07:37PM 38.1081 -82.4181 357° North 310 357 26,000  Level Indianapolis Center
07:38PM 38.1953 -82.4247 357° North 310 357 26,000  Level Indianapolis Center
07:39PM 38.2808 -82.4311 357° North 309 356 26,000  Level Indianapolis Center
07:40PM 38.3661 -82.4356 358° North 306 352 26,000  Level Indianapolis Center
07:41PM 38.4514 -82.4428 356° North 303 349 26,000  Level Indianapolis Center
07:42PM 38.5358 -82.4472 358° North 301 346 26,000  Level Indianapolis Center
07:43PM 38.6206 -82.4547 356° North 303 349 26,000  Level Indianapolis Center
07:44PM 38.7203 -82.4603 358° North 298 343 26,000  Level Indianapolis Center
07:45PM 38.8031 -82.4667 357° North 297 342 26,000  Level Indianapolis Center
07:46PM 38.8858 -82.4725 357° North 297 342 26,000  Level Indianapolis Center
07:47PM 38.9683 -82.4781 357° North 296 341 26,000  Level Indianapolis Center
07:48PM 39.0517 -82.4842 357° North 298 343 26,000  Level Indianapolis Center
07:49PM 39.1356 -82.4897 357° North 301 346 26,000  Level Indianapolis Center
07:50PM 39.2322 -82.4953 357° North 306 352 26,000  Level Indianapolis Center
07:51PM 39.3136 -82.5011 357° North 295 339 26,000  Level Indianapolis Center
07:52PM 39.3969 -82.5072 357° North 295 339 26,000  Level Indianapolis Center
07:53PM 39.4797 -82.5131 357° North 295 339 26,000  Level Indianapolis Center
07:54PM 39.5611 -82.5192 357° North 292 336 26,000  Level Indianapolis Center
07:55PM 39.6444 -82.5239 358° North 296 341 26,000  Level Indianapolis Center
07:56PM 39.7267 -82.5306 356° North 294 338 26,000  Level Indianapolis Center
07:57PM 39.8078 -82.5358 357° North 291 335 26,000 -420 Level Indianapolis Center
07:58PM 39.8925 -82.5431 356° North 300 345 25,200 -1,140 Descending Indianapolis Center
07:59PM 39.9947 -82.5492 357° North 314 361 23,700 -1,380 Descending Indianapolis Center
08:00PM 40.0814 -82.5558 357° North 311 358 22,400 -1,320 Descending Indianapolis Center
08:02PM 40.1689 -82.5617 357° North 313 360 21,100 -1,260 Descending Indianapolis Center
08:03PM 40.2519 -82.5661 358° North 312 359 19,900 -1,320 Descending Indianapolis Center
08:04PM 40.3375 -82.5731 356° North 307 353 18,500 -1,320 Descending Indianapolis Center
08:05PM 40.4242 -82.5789 357° North 310 357 17,200 -1,260 Descending Indianapolis Center
08:06PM 40.5103 -82.5836 358° North 306 352 16,000 -720 Descending Indianapolis Center
08:07PM 40.5889 -82.5903 356° North 287 330 15,800 -660 Descending Indianapolis Center
08:07PM 40.6394 -82.5942 357° North 277 319 14,900 -1,560 Descending Cleveland Center
08:08PM 40.7206 -82.5994 357° North 277 319 13,300 -1,440 Descending Cleveland Center
08:09PM 40.7997 -82.6047 357° North 277 319 12,100 -1,200 Descending Cleveland Center
08:10PM 40.8850 -82.6128 356° North 277 319 10,900 -1,260 Descending Cleveland Center
08:11PM 40.9619 -82.6178 357° North 271 312 9,600 -960 Descending Cleveland Center
08:12PM 41.0350 -82.6228 357° North 271 312 9,000 -1,140 Descending Cleveland Center
08:13PM 41.0642 -82.6267 354° North 263 303 8,100 -1,620 Descending Cleveland Center
08:13PM 41.1100 -82.6281 359° North 271 312 7,400 -1,320 Descending Cleveland Center
08:14PM 41.1806 -82.6358 355° North 271 312 6,000 -960 Descending Cleveland Center
08:15PM 41.2556 -82.6381 359° North 271 312 5,500 1,500 Descending Cleveland Center
08:16PM 41.3306 -82.6433 357° North 271 312 9,000 1,740 Climbing Cleveland Center
08:17PM 41.4036 -82.6456 359° North 271 312 9,000  Level Cleveland Center
08:18PM 41.4786 -82.6508 357° North 271 312 9,000  Level Cleveland Center
08:19PM 41.5078 -82.6517 359° North 271 312 9,000  Level Cleveland Center
08:20PM 41.5078 -82.6517 132° Southeast 271 312 9,000  Level Cleveland Center
08:22PM 41.4333 -82.6500 180° South  Level FlightAware Approximate
08:29PM 41.4334 -82.6523 180° South  Level Estimated